sensor_id;sensor_type;location;lat;lon;timestamp;P1;durP1;ratioP1;P2;durP2;ratioP2
77146;SDS011;66121;52.584;9.694;2023-06-22T00:01:47;16.20;;;12.13;;
77146;SDS011;66121;52.584;9.694;2023-06-22T00:04:12;16.73;;;12.87;;
77146;SDS011;66121;52.584;9.694;2023-06-22T00:06:37;16.40;;;12.57;;
77146;SDS011;66121;52.584;9.694;2023-06-22T00:09:02;16.60;;;12.23;;
77146;SDS011;66121;52.584;9.694;2023-06-22T00:11:28;15.40;;;12.18;;
77146;SDS011;66121;52.584;9.694;2023-06-22T00:13:53;18.63;;;13.55;;
77146;SDS011;66121;52.584;9.694;2023-06-22T00:16:19;13.50;;;11.80;;
77146;SDS011;66121;52.584;9.694;2023-06-22T00:18:44;15.40;;;12.85;;
77146;SDS011;66121;52.584;9.694;2023-06-22T00:21:12;13.70;;;10.98;;
77146;SDS011;66121;52.584;9.694;2023-06-22T00:23:38;14.75;;;12.40;;
77146;SDS011;66121;52.584;9.694;2023-06-22T00:26:03;14.63;;;12.52;;
77146;SDS011;66121;52.584;9.694;2023-06-22T00:28:28;18.15;;;13.13;;
77146;SDS011;66121;52.584;9.694;2023-06-22T00:30:54;13.63;;;12.02;;
77146;SDS011;66121;52.584;9.694;2023-06-22T00:33:19;13.70;;;11.07;;
77146;SDS011;66121;52.584;9.694;2023-06-22T00:35:45;14.15;;;12.25;;
77146;SDS011;66121;52.584;9.694;2023-06-22T00:38:10;14.97;;;11.70;;
77146;SDS011;66121;52.584;9.694;2023-06-22T00:40:36;14.65;;;12.35;;
77146;SDS011;66121;52.584;9.694;2023-06-22T00:43:01;17.98;;;12.60;;
77146;SDS011;66121;52.584;9.694;2023-06-22T00:45:27;12.50;;;11.20;;
77146;SDS011;66121;52.584;9.694;2023-06-22T00:47:53;13.68;;;11.25;;
77146;SDS011;66121;52.584;9.694;2023-06-22T00:50:21;13.88;;;11.88;;
77146;SDS011;66121;52.584;9.694;2023-06-22T00:52:51;16.20;;;11.75;;
77146;SDS011;66121;52.584;9.694;2023-06-22T00:55:18;13.23;;;11.15;;
77146;SDS011;66121;52.584;9.694;2023-06-22T00:57:46;15.68;;;12.48;;
77146;SDS011;66121;52.584;9.694;2023-06-22T01:00:12;14.85;;;12.93;;
77146;SDS011;66121;52.584;9.694;2023-06-22T01:02:40;15.70;;;12.50;;
77146;SDS011;66121;52.584;9.694;2023-06-22T01:05:06;14.55;;;12.35;;
77146;SDS011;66121;52.584;9.694;2023-06-22T01:07:35;16.42;;;12.38;;
77146;SDS011;66121;52.584;9.694;2023-06-22T01:12:45;16.30;;;12.60;;
77146;SDS011;66121;52.584;9.694;2023-06-22T01:15:28;15.10;;;13.27;;
77146;SDS011;66121;52.584;9.694;2023-06-22T01:18:03;20.15;;;13.88;;
77146;SDS011;66121;52.584;9.694;2023-06-22T01:20:29;18.67;;;13.38;;
77146;SDS011;66121;52.584;9.694;2023-06-22T01:23:05;17.45;;;14.07;;
77146;SDS011;66121;52.584;9.694;2023-06-22T01:25:47;18.55;;;14.02;;
77146;SDS011;66121;52.584;9.694;2023-06-22T01:31:10;15.75;;;12.90;;
77146;SDS011;66121;52.584;9.694;2023-06-22T01:33:39;15.02;;;12.27;;
77146;SDS011;66121;52.584;9.694;2023-06-22T01:36:06;14.48;;;12.38;;
77146;SDS011;66121;52.584;9.694;2023-06-22T01:38:33;18.45;;;13.15;;
77146;SDS011;66121;52.584;9.694;2023-06-22T01:41:00;15.98;;;12.90;;
77146;SDS011;66121;52.584;9.694;2023-06-22T01:43:26;14.90;;;13.32;;
77146;SDS011;66121;52.584;9.694;2023-06-22T01:45:54;17.33;;;13.70;;
77146;SDS011;66121;52.584;9.694;2023-06-22T01:48:23;14.75;;;12.80;;
77146;SDS011;66121;52.584;9.694;2023-06-22T01:50:51;17.80;;;14.57;;
77146;SDS011;66121;52.584;9.694;2023-06-22T01:53:17;15.20;;;13.10;;
77146;SDS011;66121;52.584;9.694;2023-06-22T01:55:42;15.18;;;12.95;;
77146;SDS011;66121;52.584;9.694;2023-06-22T01:58:08;14.20;;;12.70;;
77146;SDS011;66121;52.584;9.694;2023-06-22T02:00:34;14.60;;;12.55;;
77146;SDS011;66121;52.584;9.694;2023-06-22T02:03:05;15.30;;;12.55;;
77146;SDS011;66121;52.584;9.694;2023-06-22T02:05:36;14.52;;;12.27;;
77146;SDS011;66121;52.584;9.694;2023-06-22T02:08:11;16.58;;;12.65;;
77146;SDS011;66121;52.584;9.694;2023-06-22T02:10:43;14.50;;;11.80;;
77146;SDS011;66121;52.584;9.694;2023-06-22T02:13:10;16.15;;;13.43;;
77146;SDS011;66121;52.584;9.694;2023-06-22T02:15:36;15.60;;;12.30;;
77146;SDS011;66121;52.584;9.694;2023-06-22T02:18:02;17.20;;;13.80;;
77146;SDS011;66121;52.584;9.694;2023-06-22T02:20:28;13.70;;;12.30;;
77146;SDS011;66121;52.584;9.694;2023-06-22T02:22:53;14.17;;;12.60;;
77146;SDS011;66121;52.584;9.694;2023-06-22T02:25:18;14.40;;;12.90;;
77146;SDS011;66121;52.584;9.694;2023-06-22T02:27:44;14.80;;;12.57;;
77146;SDS011;66121;52.584;9.694;2023-06-22T02:30:10;15.20;;;12.45;;
77146;SDS011;66121;52.584;9.694;2023-06-22T02:32:36;14.63;;;11.77;;
77146;SDS011;66121;52.584;9.694;2023-06-22T02:35:01;16.42;;;13.98;;
77146;SDS011;66121;52.584;9.694;2023-06-22T02:37:30;16.52;;;13.30;;
77146;SDS011;66121;52.584;9.694;2023-06-22T02:39:56;13.77;;;11.70;;
77146;SDS011;66121;52.584;9.694;2023-06-22T02:42:22;16.17;;;12.37;;
77146;SDS011;66121;52.584;9.694;2023-06-22T02:44:47;14.43;;;12.20;;
77146;SDS011;66121;52.584;9.694;2023-06-22T02:47:12;17.17;;;13.10;;
77146;SDS011;66121;52.584;9.694;2023-06-22T02:49:38;14.35;;;12.65;;
77146;SDS011;66121;52.584;9.694;2023-06-22T02:52:03;15.45;;;13.68;;
77146;SDS011;66121;52.584;9.694;2023-06-22T02:54:29;16.35;;;13.38;;
77146;SDS011;66121;52.584;9.694;2023-06-22T02:56:54;14.60;;;12.50;;
77146;SDS011;66121;52.584;9.694;2023-06-22T02:59:19;17.73;;;13.57;;
77146;SDS011;66121;52.584;9.694;2023-06-22T03:01:49;15.40;;;12.93;;
77146;SDS011;66121;52.584;9.694;2023-06-22T03:04:15;15.05;;;12.75;;
77146;SDS011;66121;52.584;9.694;2023-06-22T03:06:40;13.48;;;12.05;;
77146;SDS011;66121;52.584;9.694;2023-06-22T03:09:06;15.85;;;12.25;;
77146;SDS011;66121;52.584;9.694;2023-06-22T03:11:32;13.50;;;12.07;;
77146;SDS011;66121;52.584;9.694;2023-06-22T03:13:59;13.88;;;12.30;;
77146;SDS011;66121;52.584;9.694;2023-06-22T03:16:24;13.63;;;11.95;;
77146;SDS011;66121;52.584;9.694;2023-06-22T03:18:50;15.82;;;12.25;;
77146;SDS011;66121;52.584;9.694;2023-06-22T03:21:15;16.53;;;14.07;;
77146;SDS011;66121;52.584;9.694;2023-06-22T03:23:41;17.40;;;14.02;;
77146;SDS011;66121;52.584;9.694;2023-06-22T03:26:08;17.42;;;14.52;;
77146;SDS011;66121;52.584;9.694;2023-06-22T03:28:34;16.27;;;14.43;;
77146;SDS011;66121;52.584;9.694;2023-06-22T03:30:59;16.67;;;14.57;;
77146;SDS011;66121;52.584;9.694;2023-06-22T03:33:24;17.48;;;13.90;;
77146;SDS011;66121;52.584;9.694;2023-06-22T03:35:50;15.95;;;13.27;;
77146;SDS011;66121;52.584;9.694;2023-06-22T03:38:16;18.80;;;15.70;;
77146;SDS011;66121;52.584;9.694;2023-06-22T03:40:41;18.08;;;14.30;;
77146;SDS011;66121;52.584;9.694;2023-06-22T03:43:07;16.23;;;13.93;;
77146;SDS011;66121;52.584;9.694;2023-06-22T03:45:32;17.70;;;14.55;;
77146;SDS011;66121;52.584;9.694;2023-06-22T03:47:57;16.37;;;13.83;;
77146;SDS011;66121;52.584;9.694;2023-06-22T03:50:22;16.37;;;13.33;;
77146;SDS011;66121;52.584;9.694;2023-06-22T03:52:48;15.10;;;13.13;;
77146;SDS011;66121;52.584;9.694;2023-06-22T03:55:13;16.13;;;12.80;;
77146;SDS011;66121;52.584;9.694;2023-06-22T03:57:39;15.88;;;13.40;;
77146;SDS011;66121;52.584;9.694;2023-06-22T04:00:04;17.27;;;13.75;;
77146;SDS011;66121;52.584;9.694;2023-06-22T04:02:33;14.65;;;13.02;;
77146;SDS011;66121;52.584;9.694;2023-06-22T04:04:58;15.65;;;12.85;;
77146;SDS011;66121;52.584;9.694;2023-06-22T04:07:23;16.60;;;12.30;;
77146;SDS011;66121;52.584;9.694;2023-06-22T04:09:48;15.83;;;13.00;;
77146;SDS011;66121;52.584;9.694;2023-06-22T04:12:14;16.03;;;13.10;;
77146;SDS011;66121;52.584;9.694;2023-06-22T04:14:39;16.73;;;13.10;;
77146;SDS011;66121;52.584;9.694;2023-06-22T04:17:04;16.13;;;13.23;;
77146;SDS011;66121;52.584;9.694;2023-06-22T04:19:30;14.27;;;12.68;;
77146;SDS011;66121;52.584;9.694;2023-06-22T04:21:55;35.75;;;14.15;;
77146;SDS011;66121;52.584;9.694;2023-06-22T04:24:21;17.83;;;13.48;;
77146;SDS011;66121;52.584;9.694;2023-06-22T04:26:46;15.77;;;12.63;;
77146;SDS011;66121;52.584;9.694;2023-06-22T04:29:12;16.25;;;13.52;;
77146;SDS011;66121;52.584;9.694;2023-06-22T04:31:38;14.15;;;12.52;;
77146;SDS011;66121;52.584;9.694;2023-06-22T04:34:04;14.48;;;12.98;;
77146;SDS011;66121;52.584;9.694;2023-06-22T04:36:35;13.65;;;12.10;;
77146;SDS011;66121;52.584;9.694;2023-06-22T04:39:04;13.95;;;12.10;;
77146;SDS011;66121;52.584;9.694;2023-06-22T04:41:31;12.85;;;11.55;;
77146;SDS011;66121;52.584;9.694;2023-06-22T04:44:07;13.40;;;11.27;;
77146;SDS011;66121;52.584;9.694;2023-06-22T04:46:39;12.25;;;10.48;;
77146;SDS011;66121;52.584;9.694;2023-06-22T04:49:08;12.00;;;10.18;;
77146;SDS011;66121;52.584;9.694;2023-06-22T04:51:38;12.23;;;9.82;;
77146;SDS011;66121;52.584;9.694;2023-06-22T04:54:05;12.07;;;10.52;;
77146;SDS011;66121;52.584;9.694;2023-06-22T04:56:31;10.93;;;9.32;;
77146;SDS011;66121;52.584;9.694;2023-06-22T04:58:57;10.10;;;8.98;;
77146;SDS011;66121;52.584;9.694;2023-06-22T05:01:23;10.73;;;9.10;;
77146;SDS011;66121;52.584;9.694;2023-06-22T05:03:48;10.57;;;9.48;;
77146;SDS011;66121;52.584;9.694;2023-06-22T05:06:14;11.75;;;9.25;;
77146;SDS011;66121;52.584;9.694;2023-06-22T05:08:40;12.00;;;9.18;;
77146;SDS011;66121;52.584;9.694;2023-06-22T05:11:05;10.88;;;9.05;;
77146;SDS011;66121;52.584;9.694;2023-06-22T05:13:31;10.73;;;9.63;;
77146;SDS011;66121;52.584;9.694;2023-06-22T05:15:57;10.10;;;8.93;;
77146;SDS011;66121;52.584;9.694;2023-06-22T05:18:27;11.57;;;8.52;;
77146;SDS011;66121;52.584;9.694;2023-06-22T05:20:54;11.10;;;8.57;;
77146;SDS011;66121;52.584;9.694;2023-06-22T05:23:25;12.13;;;9.20;;
77146;SDS011;66121;52.584;9.694;2023-06-22T05:25:51;9.87;;;8.37;;
77146;SDS011;66121;52.584;9.694;2023-06-22T05:28:16;8.70;;;7.75;;
77146;SDS011;66121;52.584;9.694;2023-06-22T05:30:42;9.63;;;8.23;;
77146;SDS011;66121;52.584;9.694;2023-06-22T05:33:07;10.03;;;8.53;;
77146;SDS011;66121;52.584;9.694;2023-06-22T05:35:32;8.82;;;7.50;;
77146;SDS011;66121;52.584;9.694;2023-06-22T05:37:57;9.97;;;7.20;;
77146;SDS011;66121;52.584;9.694;2023-06-22T05:40:23;8.17;;;7.33;;
77146;SDS011;66121;52.584;9.694;2023-06-22T05:42:48;8.88;;;7.25;;
77146;SDS011;66121;52.584;9.694;2023-06-22T05:45:13;8.50;;;7.60;;
77146;SDS011;66121;52.584;9.694;2023-06-22T05:47:39;7.57;;;6.78;;
77146;SDS011;66121;52.584;9.694;2023-06-22T05:50:04;15.23;;;7.82;;
77146;SDS011;66121;52.584;9.694;2023-06-22T05:52:33;9.57;;;7.18;;
77146;SDS011;66121;52.584;9.694;2023-06-22T05:54:58;8.65;;;6.95;;
77146;SDS011;66121;52.584;9.694;2023-06-22T05:57:24;7.30;;;6.53;;
77146;SDS011;66121;52.584;9.694;2023-06-22T05:59:49;8.60;;;6.83;;
77146;SDS011;66121;52.584;9.694;2023-06-22T06:02:14;7.93;;;6.63;;
77146;SDS011;66121;52.584;9.694;2023-06-22T06:04:39;8.47;;;6.60;;
77146;SDS011;66121;52.584;9.694;2023-06-22T06:07:05;9.53;;;7.30;;
77146;SDS011;66121;52.584;9.694;2023-06-22T06:09:30;8.45;;;6.43;;
77146;SDS011;66121;52.584;9.694;2023-06-22T06:11:56;7.93;;;6.60;;
77146;SDS011;66121;52.584;9.694;2023-06-22T06:14:21;8.32;;;6.35;;
77146;SDS011;66121;52.584;9.694;2023-06-22T06:16:47;9.15;;;7.03;;
77146;SDS011;66121;52.584;9.694;2023-06-22T06:19:13;7.38;;;6.55;;
77146;SDS011;66121;52.584;9.694;2023-06-22T06:21:38;8.40;;;6.80;;
77146;SDS011;66121;52.584;9.694;2023-06-22T06:24:04;8.13;;;6.53;;
77146;SDS011;66121;52.584;9.694;2023-06-22T06:26:29;8.48;;;6.22;;
77146;SDS011;66121;52.584;9.694;2023-06-22T06:28:59;7.63;;;6.20;;
77146;SDS011;66121;52.584;9.694;2023-06-22T06:31:25;8.57;;;6.80;;
77146;SDS011;66121;52.584;9.694;2023-06-22T06:33:53;7.10;;;6.22;;
77146;SDS011;66121;52.584;9.694;2023-06-22T06:36:19;7.18;;;6.05;;
77146;SDS011;66121;52.584;9.694;2023-06-22T06:38:44;8.35;;;6.00;;
77146;SDS011;66121;52.584;9.694;2023-06-22T06:41:12;7.03;;;6.20;;
77146;SDS011;66121;52.584;9.694;2023-06-22T06:43:38;6.93;;;5.70;;
77146;SDS011;66121;52.584;9.694;2023-06-22T06:46:03;8.17;;;5.53;;
77146;SDS011;66121;52.584;9.694;2023-06-22T06:48:28;7.20;;;5.68;;
77146;SDS011;66121;52.584;9.694;2023-06-22T06:50:54;7.00;;;6.05;;
77146;SDS011;66121;52.584;9.694;2023-06-22T06:53:19;6.63;;;5.47;;
77146;SDS011;66121;52.584;9.694;2023-06-22T06:55:44;6.53;;;5.70;;
77146;SDS011;66121;52.584;9.694;2023-06-22T06:58:10;7.38;;;5.82;;
77146;SDS011;66121;52.584;9.694;2023-06-22T07:00:38;6.85;;;5.03;;
77146;SDS011;66121;52.584;9.694;2023-06-22T07:03:04;6.70;;;5.57;;
77146;SDS011;66121;52.584;9.694;2023-06-22T07:05:29;6.78;;;5.00;;
77146;SDS011;66121;52.584;9.694;2023-06-22T07:07:54;5.95;;;5.18;;
77146;SDS011;66121;52.584;9.694;2023-06-22T07:10:19;8.63;;;5.37;;
77146;SDS011;66121;52.584;9.694;2023-06-22T07:12:45;6.35;;;5.30;;
77146;SDS011;66121;52.584;9.694;2023-06-22T07:15:10;6.13;;;4.97;;
77146;SDS011;66121;52.584;9.694;2023-06-22T07:17:37;6.55;;;4.90;;
77146;SDS011;66121;52.584;9.694;2023-06-22T07:20:07;6.70;;;4.72;;
77146;SDS011;66121;52.584;9.694;2023-06-22T07:22:36;7.53;;;4.90;;
77146;SDS011;66121;52.584;9.694;2023-06-22T07:25:01;6.40;;;4.90;;
77146;SDS011;66121;52.584;9.694;2023-06-22T07:27:34;6.38;;;4.97;;
77146;SDS011;66121;52.584;9.694;2023-06-22T07:30:03;7.95;;;5.18;;
77146;SDS011;66121;52.584;9.694;2023-06-22T07:32:29;6.60;;;4.90;;
77146;SDS011;66121;52.584;9.694;2023-06-22T07:34:54;6.87;;;5.07;;
77146;SDS011;66121;52.584;9.694;2023-06-22T07:37:20;6.22;;;4.55;;
77146;SDS011;66121;52.584;9.694;2023-06-22T07:39:45;6.45;;;4.47;;
77146;SDS011;66121;52.584;9.694;2023-06-22T07:42:11;6.83;;;5.03;;
77146;SDS011;66121;52.584;9.694;2023-06-22T07:44:36;7.60;;;5.80;;
77146;SDS011;66121;52.584;9.694;2023-06-22T07:47:01;7.10;;;5.07;;
77146;SDS011;66121;52.584;9.694;2023-06-22T07:49:27;6.18;;;5.18;;
77146;SDS011;66121;52.584;9.694;2023-06-22T07:51:53;9.75;;;5.50;;
77146;SDS011;66121;52.584;9.694;2023-06-22T07:54:18;7.13;;;5.67;;
77146;SDS011;66121;52.584;9.694;2023-06-22T07:56:43;6.30;;;5.00;;
77146;SDS011;66121;52.584;9.694;2023-06-22T07:59:09;6.80;;;5.43;;
77146;SDS011;66121;52.584;9.694;2023-06-22T08:01:34;7.40;;;5.07;;
77146;SDS011;66121;52.584;9.694;2023-06-22T08:03:59;8.60;;;6.03;;
77146;SDS011;66121;52.584;9.694;2023-06-22T08:06:25;6.03;;;5.27;;
77146;SDS011;66121;52.584;9.694;2023-06-22T08:08:50;7.13;;;5.93;;
77146;SDS011;66121;52.584;9.694;2023-06-22T08:11:17;8.93;;;5.85;;
77146;SDS011;66121;52.584;9.694;2023-06-22T08:13:43;7.18;;;5.68;;
77146;SDS011;66121;52.584;9.694;2023-06-22T08:16:08;8.07;;;6.00;;
77146;SDS011;66121;52.584;9.694;2023-06-22T08:18:33;6.13;;;5.53;;
77146;SDS011;66121;52.584;9.694;2023-06-22T08:20:59;8.23;;;6.53;;
77146;SDS011;66121;52.584;9.694;2023-06-22T08:23:24;7.20;;;6.40;;
77146;SDS011;66121;52.584;9.694;2023-06-22T08:25:49;6.70;;;6.00;;
77146;SDS011;66121;52.584;9.694;2023-06-22T08:28:15;9.90;;;7.10;;
77146;SDS011;66121;52.584;9.694;2023-06-22T08:30:40;10.82;;;6.85;;
77146;SDS011;66121;52.584;9.694;2023-06-22T08:33:06;7.68;;;6.28;;
77146;SDS011;66121;52.584;9.694;2023-06-22T08:35:31;7.65;;;6.85;;
77146;SDS011;66121;52.584;9.694;2023-06-22T08:37:56;9.40;;;6.82;;
77146;SDS011;66121;52.584;9.694;2023-06-22T08:40:23;7.97;;;6.93;;
77146;SDS011;66121;52.584;9.694;2023-06-22T08:42:49;7.88;;;6.40;;
77146;SDS011;66121;52.584;9.694;2023-06-22T08:45:14;11.00;;;7.10;;
77146;SDS011;66121;52.584;9.694;2023-06-22T08:47:40;8.63;;;7.68;;
77146;SDS011;66121;52.584;9.694;2023-06-22T08:50:06;10.38;;;7.10;;
77146;SDS011;66121;52.584;9.694;2023-06-22T08:52:33;10.48;;;7.45;;
77146;SDS011;66121;52.584;9.694;2023-06-22T08:54:59;10.15;;;7.85;;
77146;SDS011;66121;52.584;9.694;2023-06-22T08:57:24;10.68;;;7.57;;
77146;SDS011;66121;52.584;9.694;2023-06-22T08:59:49;8.38;;;7.03;;
77146;SDS011;66121;52.584;9.694;2023-06-22T09:02:17;9.48;;;7.40;;
77146;SDS011;66121;52.584;9.694;2023-06-22T09:04:42;9.80;;;8.07;;
77146;SDS011;66121;52.584;9.694;2023-06-22T09:07:08;13.07;;;8.20;;
77146;SDS011;66121;52.584;9.694;2023-06-22T09:09:33;9.97;;;8.00;;
77146;SDS011;66121;52.584;9.694;2023-06-22T09:11:58;8.87;;;7.97;;
77146;SDS011;66121;52.584;9.694;2023-06-22T09:14:24;11.30;;;8.80;;
77146;SDS011;66121;52.584;9.694;2023-06-22T09:16:49;14.10;;;8.55;;
77146;SDS011;66121;52.584;9.694;2023-06-22T09:19:14;10.00;;;9.00;;
77146;SDS011;66121;52.584;9.694;2023-06-22T09:21:39;15.25;;;9.75;;
77146;SDS011;66121;52.584;9.694;2023-06-22T09:24:05;11.02;;;9.52;;
77146;SDS011;66121;52.584;9.694;2023-06-22T09:26:30;10.68;;;9.57;;
77146;SDS011;66121;52.584;9.694;2023-06-22T09:28:56;10.77;;;9.43;;
77146;SDS011;66121;52.584;9.694;2023-06-22T09:31:22;12.20;;;9.18;;
77146;SDS011;66121;52.584;9.694;2023-06-22T09:33:51;11.82;;;9.68;;
77146;SDS011;66121;52.584;9.694;2023-06-22T09:36:17;11.35;;;9.70;;
77146;SDS011;66121;52.584;9.694;2023-06-22T09:38:42;9.70;;;8.70;;
77146;SDS011;66121;52.584;9.694;2023-06-22T09:41:07;11.45;;;9.50;;
77146;SDS011;66121;52.584;9.694;2023-06-22T09:43:33;11.53;;;9.90;;
77146;SDS011;66121;52.584;9.694;2023-06-22T09:46:01;12.13;;;10.13;;
77146;SDS011;66121;52.584;9.694;2023-06-22T09:48:27;14.98;;;10.32;;
77146;SDS011;66121;52.584;9.694;2023-06-22T09:50:55;12.10;;;10.02;;
77146;SDS011;66121;52.584;9.694;2023-06-22T09:53:20;11.95;;;10.15;;
77146;SDS011;66121;52.584;9.694;2023-06-22T09:55:46;12.23;;;10.30;;
77146;SDS011;66121;52.584;9.694;2023-06-22T09:58:11;13.20;;;11.80;;
77146;SDS011;66121;52.584;9.694;2023-06-22T10:00:37;12.65;;;10.82;;
77146;SDS011;66121;52.584;9.694;2023-06-22T10:03:02;12.73;;;11.33;;
77146;SDS011;66121;52.584;9.694;2023-06-22T10:05:27;12.70;;;10.35;;
77146;SDS011;66121;52.584;9.694;2023-06-22T10:07:52;15.27;;;10.82;;
77146;SDS011;66121;52.584;9.694;2023-06-22T10:10:18;12.43;;;10.43;;
77146;SDS011;66121;52.584;9.694;2023-06-22T10:13:25;12.55;;;10.57;;
77146;SDS011;66121;52.584;9.694;2023-06-22T10:15:36;13.05;;;9.85;;
77146;SDS011;66121;52.584;9.694;2023-06-22T10:18:02;12.48;;;10.93;;
77146;SDS011;66121;52.584;9.694;2023-06-22T10:20:27;14.45;;;11.48;;
77146;SDS011;66121;52.584;9.694;2023-06-22T10:22:53;12.35;;;11.05;;
77146;SDS011;66121;52.584;9.694;2023-06-22T10:25:18;13.85;;;11.27;;
77146;SDS011;66121;52.584;9.694;2023-06-22T10:27:44;13.13;;;11.30;;
77146;SDS011;66121;52.584;9.694;2023-06-22T10:30:10;14.43;;;11.43;;
77146;SDS011;66121;52.584;9.694;2023-06-22T10:32:37;13.25;;;11.60;;
77146;SDS011;66121;52.584;9.694;2023-06-22T10:35:03;14.10;;;11.77;;
77146;SDS011;66121;52.584;9.694;2023-06-22T10:37:29;25.23;;;12.48;;
77146;SDS011;66121;52.584;9.694;2023-06-22T10:39:54;15.02;;;12.70;;
77146;SDS011;66121;52.584;9.694;2023-06-22T10:42:20;13.43;;;11.75;;
77146;SDS011;66121;52.584;9.694;2023-06-22T10:44:45;12.88;;;11.43;;
77146;SDS011;66121;52.584;9.694;2023-06-22T10:47:11;13.23;;;11.85;;
77146;SDS011;66121;52.584;9.694;2023-06-22T10:49:40;14.63;;;12.02;;
77146;SDS011;66121;52.584;9.694;2023-06-22T10:52:06;13.30;;;11.90;;
77146;SDS011;66121;52.584;9.694;2023-06-22T10:54:33;13.30;;;11.90;;
77146;SDS011;66121;52.584;9.694;2023-06-22T10:56:59;13.05;;;11.35;;
77146;SDS011;66121;52.584;9.694;2023-06-22T10:59:24;11.98;;;10.50;;
77146;SDS011;66121;52.584;9.694;2023-06-22T11:01:50;14.98;;;10.88;;
77146;SDS011;66121;52.584;9.694;2023-06-22T11:04:16;12.98;;;11.25;;
77146;SDS011;66121;52.584;9.694;2023-06-22T11:06:42;13.57;;;11.43;;
77146;SDS011;66121;52.584;9.694;2023-06-22T11:09:08;16.52;;;10.88;;
77146;SDS011;66121;52.584;9.694;2023-06-22T11:11:33;11.53;;;10.33;;
77146;SDS011;66121;52.584;9.694;2023-06-22T11:13:58;12.17;;;10.90;;
77146;SDS011;66121;52.584;9.694;2023-06-22T11:16:23;12.32;;;10.18;;
77146;SDS011;66121;52.584;9.694;2023-06-22T11:18:49;12.73;;;10.50;;
77146;SDS011;66121;52.584;9.694;2023-06-22T11:21:14;13.88;;;11.32;;
77146;SDS011;66121;52.584;9.694;2023-06-22T11:23:39;13.65;;;10.93;;
77146;SDS011;66121;52.584;9.694;2023-06-22T11:26:06;50.47;;;14.48;;
77146;SDS011;66121;52.584;9.694;2023-06-22T11:28:32;12.55;;;10.73;;
77146;SDS011;66121;52.584;9.694;2023-06-22T11:30:57;13.37;;;10.90;;
77146;SDS011;66121;52.584;9.694;2023-06-22T11:33:22;11.47;;;10.27;;
77146;SDS011;66121;52.584;9.694;2023-06-22T11:35:48;14.17;;;10.27;;
77146;SDS011;66121;52.584;9.694;2023-06-22T11:38:13;12.97;;;10.93;;
77146;SDS011;66121;52.584;9.694;2023-06-22T11:40:38;11.77;;;10.57;;
77146;SDS011;66121;52.584;9.694;2023-06-22T11:43:03;11.77;;;10.57;;
77146;SDS011;66121;52.584;9.694;2023-06-22T11:45:29;12.15;;;10.43;;
77146;SDS011;66121;52.584;9.694;2023-06-22T11:47:54;11.80;;;10.50;;
77146;SDS011;66121;52.584;9.694;2023-06-22T11:50:19;12.40;;;10.10;;
77146;SDS011;66121;52.584;9.694;2023-06-22T11:52:45;11.23;;;10.02;;
77146;SDS011;66121;52.584;9.694;2023-06-22T11:55:10;12.88;;;10.65;;
77146;SDS011;66121;52.584;9.694;2023-06-22T11:57:36;13.15;;;9.68;;
77146;SDS011;66121;52.584;9.694;2023-06-22T12:00:03;13.02;;;10.00;;
77146;SDS011;66121;52.584;9.694;2023-06-22T12:02:41;11.30;;;9.95;;
77146;SDS011;66121;52.584;9.694;2023-06-22T12:05:06;12.65;;;9.32;;
77146;SDS011;66121;52.584;9.694;2023-06-22T12:07:32;10.80;;;9.70;;
77146;SDS011;66121;52.584;9.694;2023-06-22T12:09:58;13.68;;;10.15;;
77146;SDS011;66121;52.584;9.694;2023-06-22T12:12:23;13.80;;;10.93;;
77146;SDS011;66121;52.584;9.694;2023-06-22T12:14:49;10.98;;;9.77;;
77146;SDS011;66121;52.584;9.694;2023-06-22T12:17:14;16.40;;;10.38;;
77146;SDS011;66121;52.584;9.694;2023-06-22T12:19:39;13.33;;;10.10;;
77146;SDS011;66121;52.584;9.694;2023-06-22T12:22:05;11.65;;;10.20;;
77146;SDS011;66121;52.584;9.694;2023-06-22T12:24:30;11.75;;;10.07;;
77146;SDS011;66121;52.584;9.694;2023-06-22T12:26:55;16.00;;;10.07;;
77146;SDS011;66121;52.584;9.694;2023-06-22T12:29:21;11.83;;;10.00;;
77146;SDS011;66121;52.584;9.694;2023-06-22T12:31:46;10.57;;;9.47;;
77146;SDS011;66121;52.584;9.694;2023-06-22T12:34:11;11.30;;;9.60;;
77146;SDS011;66121;52.584;9.694;2023-06-22T12:36:36;11.32;;;10.13;;
77146;SDS011;66121;52.584;9.694;2023-06-22T12:39:02;11.20;;;9.88;;
77146;SDS011;66121;52.584;9.694;2023-06-22T12:41:27;10.98;;;9.98;;
77146;SDS011;66121;52.584;9.694;2023-06-22T12:43:52;11.43;;;10.23;;
77146;SDS011;66121;52.584;9.694;2023-06-22T12:46:18;11.93;;;10.73;;
77146;SDS011;66121;52.584;9.694;2023-06-22T12:48:43;10.63;;;9.52;;
77146;SDS011;66121;52.584;9.694;2023-06-22T12:51:09;11.90;;;9.90;;
77146;SDS011;66121;52.584;9.694;2023-06-22T12:53:35;11.50;;;9.57;;
77146;SDS011;66121;52.584;9.694;2023-06-22T12:56:00;12.43;;;9.68;;
77146;SDS011;66121;52.584;9.694;2023-06-22T12:58:26;10.35;;;9.30;;
77146;SDS011;66121;52.584;9.694;2023-06-22T13:00:51;16.33;;;10.40;;
77146;SDS011;66121;52.584;9.694;2023-06-22T13:03:16;11.13;;;10.00;;
77146;SDS011;66121;52.584;9.694;2023-06-22T13:05:41;12.48;;;11.20;;
77146;SDS011;66121;52.584;9.694;2023-06-22T13:08:07;12.05;;;10.75;;
77146;SDS011;66121;52.584;9.694;2023-06-22T13:10:33;10.77;;;9.68;;
77146;SDS011;66121;52.584;9.694;2023-06-22T13:12:58;12.52;;;10.20;;
77146;SDS011;66121;52.584;9.694;2023-06-22T13:15:26;11.85;;;10.65;;
77146;SDS011;66121;52.584;9.694;2023-06-22T13:17:52;14.20;;;10.10;;
77146;SDS011;66121;52.584;9.694;2023-06-22T13:20:17;13.77;;;10.27;;
77146;SDS011;66121;52.584;9.694;2023-06-22T13:22:43;11.68;;;10.32;;
77146;SDS011;66121;52.584;9.694;2023-06-22T13:25:09;10.23;;;9.10;;
77146;SDS011;66121;52.584;9.694;2023-06-22T13:27:41;11.00;;;9.85;;
77146;SDS011;66121;52.584;9.694;2023-06-22T13:30:07;10.90;;;9.80;;
77146;SDS011;66121;52.584;9.694;2023-06-22T13:32:33;11.68;;;9.55;;
77146;SDS011;66121;52.584;9.694;2023-06-22T13:34:58;13.70;;;10.32;;
77146;SDS011;66121;52.584;9.694;2023-06-22T13:37:23;11.18;;;10.00;;
77146;SDS011;66121;52.584;9.694;2023-06-22T13:39:49;11.73;;;9.60;;
77146;SDS011;66121;52.584;9.694;2023-06-22T13:42:14;11.23;;;10.00;;
77146;SDS011;66121;52.584;9.694;2023-06-22T13:44:40;13.93;;;10.25;;
77146;SDS011;66121;52.584;9.694;2023-06-22T13:47:05;16.25;;;11.25;;
77146;SDS011;66121;52.584;9.694;2023-06-22T13:49:31;17.70;;;10.93;;
77146;SDS011;66121;52.584;9.694;2023-06-22T13:51:56;11.80;;;10.55;;
77146;SDS011;66121;52.584;9.694;2023-06-22T13:54:21;12.85;;;10.50;;
77146;SDS011;66121;52.584;9.694;2023-06-22T13:56:47;12.07;;;10.00;;
77146;SDS011;66121;52.584;9.694;2023-06-22T13:59:12;11.88;;;10.55;;
77146;SDS011;66121;52.584;9.694;2023-06-22T14:01:37;13.43;;;10.65;;
77146;SDS011;66121;52.584;9.694;2023-06-22T14:04:04;25.58;;;11.93;;
77146;SDS011;66121;52.584;9.694;2023-06-22T14:06:30;15.52;;;10.68;;
77146;SDS011;66121;52.584;9.694;2023-06-22T14:08:55;18.92;;;11.90;;
77146;SDS011;66121;52.584;9.694;2023-06-22T14:11:21;15.77;;;11.25;;
77146;SDS011;66121;52.584;9.694;2023-06-22T14:13:46;14.85;;;12.00;;
77146;SDS011;66121;52.584;9.694;2023-06-22T14:16:11;14.25;;;12.75;;
77146;SDS011;66121;52.584;9.694;2023-06-22T14:18:37;14.02;;;12.55;;
77146;SDS011;66121;52.584;9.694;2023-06-22T14:21:02;18.77;;;13.15;;
77146;SDS011;66121;52.584;9.694;2023-06-22T14:23:27;14.20;;;12.52;;
77146;SDS011;66121;52.584;9.694;2023-06-22T14:25:53;16.08;;;14.38;;
77146;SDS011;66121;52.584;9.694;2023-06-22T14:28:18;16.47;;;14.63;;
77146;SDS011;66121;52.584;9.694;2023-06-22T14:30:44;14.90;;;13.35;;